createdAt,value
2022-09-05T00:02:03.567Z,16.16
2022-09-05T00:05:13.285Z,16.08
2022-09-05T00:08:30.520Z,16.06
2022-09-05T00:11:43.888Z,16.07
2022-09-05T00:15:14.581Z,16.00
2022-09-05T00:19:19.163Z,15.91
2022-09-05T00:24:20.227Z,16.10
2022-09-05T00:25:14.287Z,15.95
2022-09-05T00:28:32.905Z,15.80
2022-09-05T00:31:55.803Z,15.82
2022-09-05T00:34:53.928Z,15.86
2022-09-05T00:37:42.607Z,15.77
2022-09-05T00:40:41.421Z,15.80
2022-09-05T00:43:20.981Z,15.73
2022-09-05T00:45:58.696Z,15.74
2022-09-05T00:49:15.480Z,15.79
2022-09-05T00:52:15.483Z,15.68
2022-09-05T00:55:18.298Z,15.81
2022-09-05T00:58:47.849Z,15.80
2022-09-05T01:01:40.160Z,15.77
2022-09-05T01:04:47.118Z,15.80
2022-09-05T01:07:42.818Z,15.79
2022-09-05T01:10:31.910Z,15.70
2022-09-05T01:13:32.384Z,15.72
2022-09-05T01:16:23.666Z,15.68
2022-09-05T01:19:54.235Z,15.52
2022-09-05T01:23:17.928Z,15.54
2022-09-05T01:26:20.684Z,15.56
2022-09-05T01:29:25.414Z,15.54
2022-09-05T01:32:36.190Z,15.51
2022-09-05T01:35:28.024Z,15.59
2022-09-05T01:38:36.890Z,15.56
2022-09-05T01:41:28.119Z,15.56
2022-09-05T01:44:47.172Z,15.61
2022-09-05T01:47:41.148Z,15.49
2022-09-05T01:51:28.273Z,15.55
2022-09-05T01:54:30.199Z,15.60
2022-09-05T01:57:19.427Z,15.49
2022-09-05T02:00:09.406Z,15.48
2022-09-05T02:03:40.112Z,15.49
2022-09-05T02:07:19.408Z,15.43
2022-09-05T02:10:17.166Z,15.43
2022-09-05T02:13:18.398Z,15.31
2022-09-05T02:16:15.937Z,15.25
2022-09-05T02:19:12.344Z,15.22
2022-09-05T02:22:18.614Z,15.20
2022-09-05T02:24:58.441Z,15.05
2022-09-05T02:28:05.014Z,15.16
2022-09-05T02:31:19.180Z,15.16
2022-09-05T02:34:11.884Z,14.98
2022-09-05T02:36:52.905Z,14.96
2022-09-05T02:45:01.787Z,14.87
2022-09-05T02:45:11.900Z,14.86
2022-09-05T02:46:35.527Z,14.84
2022-09-05T02:50:34.764Z,14.77
2022-09-05T02:57:29.067Z,14.70
2022-09-05T02:57:39.661Z,14.70
2022-09-05T02:59:36.684Z,14.71
2022-09-05T03:03:07.424Z,14.57
2022-09-05T03:06:04.964Z,14.58
2022-09-05T03:09:08.071Z,14.40
2022-09-05T03:12:29.439Z,14.49
2022-09-05T03:15:40.120Z,14.55
2022-09-05T03:18:48.366Z,14.43
2022-09-05T03:22:08.081Z,14.42
2022-09-05T03:25:29.249Z,14.42
2022-09-05T03:28:39.298Z,14.41
2022-09-05T03:32:18.167Z,14.20
2022-09-05T03:35:32.402Z,14.20
2022-09-05T03:38:47.042Z,14.16
2022-09-05T03:41:55.343Z,14.08
2022-09-05T03:44:57.382Z,14.08
2022-09-05T03:48:28.569Z,14.11
2022-09-05T03:57:12.796Z,14.06
2022-09-05T03:57:27.829Z,14.05
2022-09-05T03:58:22.640Z,14.01
2022-09-05T04:04:07.108Z,14.06
2022-09-05T04:08:16.456Z,14.15
2022-09-05T04:08:24.350Z,14.04
2022-09-05T04:10:52.154Z,14.22
2022-09-05T04:13:31.334Z,14.09
2022-09-05T04:16:26.770Z,14.04
2022-09-05T04:19:34.363Z,14.06
2022-09-05T04:22:21.304Z,13.90
2022-09-05T04:25:34.291Z,13.93
2022-09-05T04:29:08.357Z,13.87
2022-09-05T04:32:18.974Z,13.86
2022-09-05T04:35:15.166Z,13.81
2022-09-05T04:38:25.489Z,13.88
2022-09-05T04:41:37.621Z,13.80
2022-09-05T04:44:17.293Z,13.84
2022-09-05T04:47:12.519Z,14.11
2022-09-05T04:49:59.066Z,13.97
2022-09-05T04:53:16.107Z,14.06
2022-09-05T04:55:57.847Z,14.13
2022-09-05T04:59:36.290Z,14.23
2022-09-05T05:06:12.049Z,14.23
2022-09-05T05:06:16.673Z,14.21
2022-09-05T05:07:28.588Z,14.29
2022-09-05T05:11:34.874Z,14.27
2022-09-05T05:18:11.815Z,14.39
2022-09-05T05:19:48.920Z,14.61
2022-09-05T05:22:33.609Z,14.72
2022-09-05T05:25:01.698Z,14.74
2022-09-05T05:27:44.211Z,14.76
2022-09-05T05:30:22.770Z,14.85
2022-09-05T05:32:52.732Z,14.90
2022-09-05T05:35:33.518Z,15.00
2022-09-05T05:38:27.497Z,15.10
2022-09-05T05:41:12.847Z,15.12
2022-09-05T05:43:46.701Z,14.88
2022-09-05T05:46:35.588Z,14.91
2022-09-05T05:49:40.577Z,15.03
2022-09-05T05:53:42.921Z,15.19
2022-09-05T05:57:22.312Z,15.24
2022-09-05T06:00:17.772Z,15.34
2022-09-05T06:04:18.089Z,15.32
2022-09-05T06:07:09.750Z,15.29
2022-09-05T06:14:48.637Z,15.35
2022-09-05T06:14:57.019Z,15.31
2022-09-05T06:17:44.125Z,15.21
2022-09-05T06:22:05.589Z,15.39
2022-09-05T06:23:59.092Z,15.29
2022-09-05T06:27:35.802Z,15.41
2022-09-05T06:31:29.125Z,15.54
2022-09-05T06:34:37.770Z,15.89
2022-09-05T06:37:49.004Z,15.94
2022-09-05T06:40:29.153Z,16.01
2022-09-05T06:43:48.449Z,16.17
2022-09-05T06:46:54.267Z,16.34
2022-09-05T06:49:55.061Z,16.24
2022-09-05T06:53:19.639Z,16.46
2022-09-05T06:56:25.934Z,16.46
2022-09-05T07:00:03.194Z,16.42
2022-09-05T07:03:00.635Z,16.34
2022-09-05T07:06:19.536Z,16.62
2022-09-05T07:09:06.704Z,16.61
2022-09-05T07:12:01.475Z,16.85
2022-09-05T07:14:40.261Z,16.97
2022-09-05T07:17:59.721Z,17.38
2022-09-05T07:21:17.018Z,17.43
2022-09-05T07:24:45.615Z,17.36
2022-09-05T07:28:26.698Z,17.40
2022-09-05T07:30:39.133Z,17.44
2022-09-05T07:33:09.065Z,17.61
2022-09-05T07:35:41.895Z,17.67
2022-09-05T07:38:32.641Z,17.51
2022-09-05T07:41:35.465Z,17.73
2022-09-05T07:44:13.475Z,17.94
2022-09-05T07:46:43.755Z,18.08
2022-09-05T07:49:20.815Z,18.16
2022-09-05T07:56:47.354Z,18.17
2022-09-05T07:57:03.160Z,18.19
2022-09-05T07:58:41.827Z,18.29
2022-09-05T08:01:14.445Z,18.45
2022-09-05T08:03:44.048Z,18.61
2022-09-05T08:07:45.554Z,18.91
2022-09-05T08:10:05.363Z,18.99
2022-09-05T08:13:24.021Z,19.02
2022-09-05T08:16:10.257Z,19.12
2022-09-05T08:19:52.685Z,19.20
2022-09-05T08:22:34.671Z,19.32
2022-09-05T08:25:57.501Z,19.24
2022-09-05T08:28:53.566Z,19.29
2022-09-05T08:31:43.941Z,19.61
2022-09-05T08:34:29.752Z,19.59
2022-09-05T08:37:03.421Z,19.51
2022-09-05T08:39:33.256Z,19.54
2022-09-05T08:42:25.003Z,19.83
2022-09-05T08:46:47.281Z,20.29
2022-09-05T08:49:06.737Z,20.29
2022-09-05T08:51:57.797Z,20.44
2022-09-05T08:55:38.300Z,20.59
2022-09-05T08:58:44.797Z,20.81
2022-09-05T09:01:46.547Z,20.94
2022-09-05T09:05:14.238Z,21.06
2022-09-05T09:08:22.534Z,21.30
2022-09-05T09:11:28.163Z,20.82
2022-09-05T09:14:37.096Z,21.20
2022-09-05T09:17:45.380Z,20.91
2022-09-05T09:20:54.544Z,20.85
2022-09-05T09:23:59.730Z,21.04
2022-09-05T09:26:50.829Z,21.34
2022-09-05T09:29:18.884Z,20.99
2022-09-05T09:32:21.411Z,21.30
2022-09-05T09:35:05.644Z,21.41
2022-09-05T09:38:23.753Z,21.88
2022-09-05T09:41:45.352Z,21.92
2022-09-05T09:45:28.744Z,22.35
2022-09-05T09:48:22.319Z,22.41
2022-09-05T09:51:54.368Z,21.74
2022-09-05T09:55:05.766Z,22.04
2022-09-05T09:58:45.806Z,21.99
2022-09-05T10:01:54.402Z,22.56
2022-09-05T10:11:07.915Z,22.35
2022-09-05T10:11:09.670Z,21.76
2022-09-05T10:14:49.287Z,22.38
2022-09-05T10:18:22.411Z,22.43
2022-09-05T10:21:32.385Z,22.59
2022-09-05T10:25:12.111Z,22.09
2022-09-05T10:28:06.952Z,22.47
2022-09-05T10:32:37.734Z,22.59
2022-09-05T10:35:13.601Z,23.01
2022-09-05T10:37:13.298Z,22.85
2022-09-05T10:39:48.432Z,23.01
2022-09-05T10:42:32.083Z,23.50
2022-09-05T10:45:13.873Z,23.54
2022-09-05T10:48:32.474Z,22.84
2022-09-05T10:51:27.875Z,23.12
2022-09-05T10:54:29.811Z,23.45
2022-09-05T10:58:04.484Z,23.63
2022-09-05T11:02:27.453Z,23.47
2022-09-05T11:04:23.309Z,24.01
2022-09-05T11:07:05.344Z,23.63
2022-09-05T11:09:56.136Z,24.04
2022-09-05T11:13:10.675Z,23.68
2022-09-05T11:16:20.487Z,24.91
2022-09-05T11:19:13.197Z,25.67
2022-09-05T11:22:22.279Z,23.81
2022-09-05T11:24:58.675Z,23.95
2022-09-05T11:27:49.780Z,24.40
2022-09-05T11:30:28.576Z,24.43
2022-09-05T11:36:06.931Z,24.27
2022-09-05T11:39:58.279Z,24.58
2022-09-05T11:40:28.328Z,24.38
2022-09-05T11:43:53.031Z,25.02
2022-09-05T11:47:39.937Z,24.60
2022-09-05T11:50:35.385Z,24.91
2022-09-05T11:53:41.016Z,24.77
2022-09-05T11:56:45.507Z,25.32
2022-09-05T11:59:44.888Z,24.61
2022-09-05T12:03:59.874Z,24.03
2022-09-05T12:06:05.129Z,24.80
2022-09-05T12:08:39.701Z,25.10
2022-09-05T12:11:47.046Z,24.92
2022-09-05T12:14:59.102Z,24.76
2022-09-05T12:21:38.825Z,24.77
2022-09-05T12:25:24.998Z,25.72
2022-09-05T12:27:41.630Z,24.81
2022-09-05T12:30:14.745Z,25.60
2022-09-05T12:36:07.463Z,25.39
2022-09-05T12:40:19.743Z,25.68
2022-09-05T12:41:32.745Z,25.04
2022-09-05T12:42:10.449Z,25.38
2022-09-05T12:42:56.204Z,25.42
2022-09-05T12:46:20.345Z,25.88
2022-09-05T12:49:40.448Z,26.03
2022-09-05T12:52:33.934Z,25.40
2022-09-05T12:55:33.607Z,24.76
2022-09-05T13:02:57.032Z,24.56
2022-09-05T13:03:05.715Z,24.55
2022-09-05T13:04:32.310Z,24.94
2022-09-05T13:07:14.227Z,24.82
2022-09-05T13:11:03.790Z,25.41
2022-09-05T13:14:53.191Z,26.23
2022-09-05T13:15:53.678Z,24.86
2022-09-05T13:18:41.417Z,25.05
2022-09-05T13:21:27.874Z,25.11
2022-09-05T13:24:34.130Z,24.52
2022-09-05T13:27:27.976Z,25.16
2022-09-05T13:31:24.871Z,25.64
2022-09-05T13:38:03.038Z,25.45
2022-09-05T13:38:08.371Z,25.32
2022-09-05T13:39:19.660Z,24.27
2022-09-05T13:41:59.535Z,25.11
2022-09-05T13:44:28.287Z,25.52
2022-09-05T13:47:29.592Z,26.11
2022-09-05T13:50:33.806Z,25.67
2022-09-05T13:53:43.913Z,26.16
2022-09-05T13:56:26.878Z,25.98
2022-09-05T13:59:08.226Z,26.08
2022-09-05T14:01:40.218Z,25.33
2022-09-05T14:05:20.723Z,26.45
2022-09-05T14:08:43.331Z,25.91
2022-09-05T14:11:53.516Z,24.55
2022-09-05T14:15:10.904Z,24.98
2022-09-05T14:18:28.006Z,26.16
2022-09-05T14:21:17.406Z,25.30
2022-09-05T14:24:05.906Z,26.23
2022-09-05T14:26:48.225Z,24.89
2022-09-05T14:29:40.868Z,25.48
2022-09-05T14:37:49.722Z,26.94
2022-09-05T14:37:51.826Z,25.67
2022-09-05T14:39:42.518Z,25.75
2022-09-05T14:43:15.376Z,26.59
2022-09-05T14:46:20.475Z,26.23
2022-09-05T14:49:05.354Z,25.32
2022-09-05T14:51:35.171Z,25.24
2022-09-05T14:54:10.811Z,25.18
2022-09-05T14:59:49.704Z,26.97
2022-09-05T15:02:48.046Z,25.39
2022-09-05T15:03:02.066Z,25.66
2022-09-05T15:05:50.093Z,24.83
2022-09-05T15:09:58.624Z,24.95
2022-09-05T15:12:16.422Z,25.26
2022-09-05T15:14:12.418Z,25.57
2022-09-05T15:16:45.529Z,24.77
2022-09-05T15:19:49.344Z,25.12
2022-09-05T15:22:41.644Z,24.88
2022-09-05T15:25:19.846Z,24.67
2022-09-05T15:27:49.860Z,24.66
2022-09-05T15:30:36.542Z,24.47
2022-09-05T15:33:28.324Z,24.20
2022-09-05T15:35:58.272Z,24.55
2022-09-05T15:38:55.694Z,24.22
2022-09-05T15:41:34.338Z,24.67
2022-09-05T15:44:17.996Z,24.77
2022-09-05T15:47:03.818Z,23.86
2022-09-05T15:49:58.425Z,23.87
2022-09-05T15:52:53.494Z,24.06
2022-09-05T15:55:44.010Z,23.91
2022-09-05T15:58:16.718Z,23.48
2022-09-05T16:00:51.758Z,23.53
2022-09-05T16:03:44.040Z,23.66
2022-09-05T16:10:29.839Z,23.70
2022-09-05T16:10:35.758Z,23.50
2022-09-05T16:12:45.012Z,23.45
2022-09-05T16:20:48.283Z,23.43
2022-09-05T16:23:28.822Z,23.19
2022-09-05T16:23:29.520Z,23.03
2022-09-05T16:24:58.944Z,23.43
2022-09-05T16:28:13.610Z,23.21
2022-09-05T16:30:40.777Z,23.13
2022-09-05T16:33:36.209Z,23.15
2022-09-05T16:36:32.719Z,22.85
2022-09-05T16:39:16.968Z,22.99
2022-09-05T16:42:12.632Z,23.00
2022-09-05T16:45:33.495Z,22.82
2022-09-05T16:48:50.122Z,22.83
2022-09-05T16:52:17.026Z,22.65
2022-09-05T16:55:44.627Z,22.28
2022-09-05T16:58:45.083Z,22.47
2022-09-05T17:02:06.674Z,22.24
2022-09-05T17:05:18.260Z,22.02
2022-09-05T17:08:16.592Z,22.11
2022-09-05T17:10:57.497Z,22.08
2022-09-05T17:13:57.190Z,21.85
2022-09-05T17:16:34.620Z,22.09
2022-09-05T17:19:02.743Z,21.74
2022-09-05T17:22:53.971Z,21.50
2022-09-05T17:29:18.643Z,21.58
2022-09-05T17:29:35.090Z,21.40
2022-09-05T17:33:56.387Z,21.45
2022-09-05T17:36:42.434Z,21.26
2022-09-05T17:39:44.968Z,21.33
2022-09-05T17:43:28.406Z,21.12
2022-09-05T17:46:44.045Z,20.88
2022-09-05T17:49:19.435Z,20.81
2022-09-05T17:51:56.007Z,20.80
2022-09-05T17:54:31.332Z,20.66
2022-09-05T17:57:27.201Z,20.51
2022-09-05T18:00:04.103Z,20.62
2022-09-05T18:02:56.646Z,20.48
2022-09-05T18:05:54.673Z,20.43
2022-09-05T18:08:52.796Z,20.36
2022-09-05T18:11:25.449Z,20.25
2022-09-05T18:14:24.578Z,20.21
2022-09-05T18:17:36.093Z,20.03
2022-09-05T18:19:45.538Z,20.30
2022-09-05T18:22:32.901Z,20.17
2022-09-05T18:25:28.291Z,19.78
2022-09-05T18:28:18.811Z,19.91
2022-09-05T18:30:45.960Z,19.92
2022-09-05T18:33:54.958Z,19.77
2022-09-05T18:36:27.713Z,19.86
2022-09-05T18:39:27.832Z,19.42
2022-09-05T18:42:07.066Z,19.32
2022-09-05T18:44:59.656Z,19.49
2022-09-05T18:48:01.548Z,19.36
2022-09-05T18:50:36.345Z,19.47
2022-09-05T18:53:12.984Z,19.23
2022-09-05T18:56:37.019Z,19.08
2022-09-05T18:59:18.216Z,18.99
2022-09-05T19:02:50.797Z,18.90
2022-09-05T19:05:54.840Z,19.00
2022-09-05T19:08:32.680Z,18.78
2022-09-05T19:11:09.206Z,18.78
2022-09-05T19:13:54.202Z,18.65
2022-09-05T19:16:43.156Z,18.53
2022-09-05T19:19:24.808Z,18.45
2022-09-05T19:22:54.122Z,18.57
2022-09-05T19:24:49.384Z,18.63
2022-09-05T19:27:55.383Z,18.58
2022-09-05T19:36:48.682Z,18.78
2022-09-05T19:36:50.138Z,18.64
2022-09-05T19:37:09.606Z,18.43
2022-09-05T19:42:29.871Z,18.46
2022-09-05T19:47:30.549Z,18.34
2022-09-05T19:47:45.142Z,18.46
2022-09-05T19:48:07.356Z,18.40
2022-09-05T19:50:29.956Z,18.44
2022-09-05T19:53:08.348Z,18.39
2022-09-05T19:55:38.449Z,18.38
2022-09-05T19:58:24.121Z,18.48
2022-09-05T20:01:08.208Z,18.52
2022-09-05T20:03:43.308Z,18.40
2022-09-05T20:06:30.826Z,18.38
2022-09-05T20:09:19.872Z,18.29
2022-09-05T20:11:58.006Z,18.44
2022-09-05T20:14:36.580Z,18.27
2022-09-05T20:17:29.975Z,18.25
2022-09-05T20:20:12.256Z,18.20
2022-09-05T20:22:49.190Z,18.12
2022-09-05T20:25:47.127Z,18.06
2022-09-05T20:28:22.873Z,18.09
2022-09-05T20:30:57.947Z,18.00
2022-09-05T20:33:39.368Z,17.99
2022-09-05T20:38:26.360Z,17.99
2022-09-05T20:43:27.335Z,18.13
2022-09-05T20:43:30.512Z,17.84
2022-09-05T20:45:03.477Z,17.91
2022-09-05T20:54:05.886Z,18.20
2022-09-05T20:54:23.202Z,17.97
2022-09-05T20:54:31.674Z,17.87
2022-09-05T20:56:32.380Z,17.85
2022-09-05T20:59:00.982Z,17.99
2022-09-05T21:01:32.341Z,17.87
2022-09-05T21:04:05.679Z,17.75
2022-09-05T21:06:41.276Z,17.72
2022-09-05T21:09:29.809Z,17.65
2022-09-05T21:11:59.025Z,17.54
2022-09-05T21:14:28.826Z,17.45
2022-09-05T21:17:12.042Z,17.39
2022-09-05T21:19:53.550Z,17.62
2022-09-05T21:22:21.184Z,17.69
2022-09-05T21:25:43.620Z,17.64
2022-09-05T21:28:36.310Z,17.64
2022-09-05T21:31:15.780Z,17.57
2022-09-05T21:33:45.872Z,17.45
2022-09-05T21:36:17.897Z,17.35
2022-09-05T21:38:45.124Z,17.33
2022-09-05T21:41:16.213Z,17.34
2022-09-05T21:47:33.978Z,17.32
2022-09-05T21:47:49.015Z,17.33
2022-09-05T21:49:25.722Z,17.34
2022-09-05T21:51:53.228Z,17.26
2022-09-05T21:59:15.053Z,17.19
2022-09-05T21:59:22.088Z,17.25
2022-09-05T22:00:20.429Z,17.09
2022-09-05T22:02:52.367Z,17.14
2022-09-05T22:05:21.631Z,17.15
2022-09-05T22:07:51.265Z,17.12
2022-09-05T22:10:18.319Z,16.99
2022-09-05T22:12:45.302Z,16.84
2022-09-05T22:15:28.374Z,16.99
2022-09-05T22:18:16.134Z,16.94
2022-09-05T22:20:57.209Z,16.97
2022-09-05T22:23:40.403Z,16.88
2022-09-05T22:26:07.479Z,16.97
2022-09-05T22:28:48.656Z,16.78
2022-09-05T22:31:18.748Z,16.80
2022-09-05T22:33:46.458Z,16.73
2022-09-05T22:36:17.981Z,16.69
2022-09-05T22:38:45.182Z,16.54
2022-09-05T22:41:13.701Z,16.68
2022-09-05T22:43:41.059Z,16.61
2022-09-05T22:46:08.478Z,16.58
2022-09-05T22:48:36.775Z,16.58
2022-09-05T22:51:04.802Z,16.45
2022-09-05T22:53:32.186Z,16.52
2022-09-05T22:56:06.502Z,16.41
2022-09-05T22:58:46.104Z,16.47
2022-09-05T23:01:13.663Z,16.25
2022-09-05T23:03:40.667Z,16.25
2022-09-05T23:06:10.261Z,16.25
2022-09-05T23:08:37.292Z,16.38
2022-09-05T23:11:16.694Z,16.23
2022-09-05T23:13:44.412Z,16.25
2022-09-05T23:16:11.917Z,16.14
2022-09-05T23:18:40.282Z,16.06
2022-09-05T23:21:14.999Z,16.03
2022-09-05T23:23:42.591Z,16.13
2022-09-05T23:26:13.113Z,16.14
2022-09-05T23:28:43.926Z,16.05
2022-09-05T23:31:13.235Z,16.17
2022-09-05T23:33:42.586Z,16.09
2022-09-05T23:36:16.468Z,16.13
2022-09-05T23:38:44.079Z,16.27
2022-09-05T23:41:14.614Z,16.21
2022-09-05T23:43:42.463Z,15.98
2022-09-05T23:46:10.215Z,16.08
2022-09-05T23:48:37.377Z,16.01
2022-09-05T23:51:11.590Z,16.13
2022-09-05T23:53:39.093Z,16.09
2022-09-05T23:56:11.049Z,15.88
2022-09-05T23:58:38.752Z,15.97
